Time;durP1;ratioP1;P1;durP2;ratioP2;P2;SDS_P1;SDS_P2;PMS_P1;PMS_P2;Temp;Humidity;BMP_temperature;BMP_pressure;BME280_temperature;BME280_humidity;BME280_pressure;Samples;Min_cycle;Max_cycle;Signal;HPM_P1;HPM_P2
2023/05/05 00:02:21;;;;;;;;;;;;;;;23.25;58.47;101232.78;5110232;28;19951;-53
2023/05/05 00:04:47;;;;;;;;;;;;;;;23.27;58.70;101227.06;5107241;28;20446;-55
2023/05/05 00:07:12;;;;;;;;;;;;;;;23.20;58.72;101228.13;5112678;28;19916;-53
2023/05/05 00:09:37;;;;;;;;;;;;;;;22.94;59.49;101232.72;5113685;28;19939;-55
2023/05/05 00:12:03;;;;;;;;;;;;;;;22.99;59.92;101232.72;5107381;28;20375;-48
2023/05/05 00:14:29;;;;;;;;;;;;;;;23.20;59.86;101240.94;5105216;28;19926;-49
2023/05/05 00:16:54;;;;;;;;;;;;;;;23.01;60.46;101237.94;5106188;28;19920;-52
2023/05/05 00:19:19;;;;;;;;;;;;;;;23.19;60.26;101236.59;5107646;28;19924;-54
2023/05/05 00:21:45;;;;;;;;;;;;;;;23.27;59.98;101236.06;5101619;28;19916;-53
2023/05/05 00:24:11;;;;;;;;;;;;;;;23.62;59.12;101225.41;5104514;28;19935;-54
2023/05/05 00:26:36;;;;;;;;;;;;;;;23.06;60.94;101235.19;5099998;28;19980;-54
2023/05/05 00:29:02;;;;;;;;;;;;;;;23.48;59.95;101244.25;5100058;28;19919;-50
2023/05/05 00:31:27;;;;;;;;;;;;;;;22.94;61.27;101240.91;5104400;28;19975;-51
2023/05/05 00:33:53;;;;;;;;;;;;;;;22.94;62.58;101250.97;5086106;28;19916;-49
2023/05/05 00:36:18;;;;;;;;;;;;;;;22.62;64.42;101248.19;5100148;28;19942;-54
2023/05/05 00:38:44;;;;;;;;;;;;;;;22.66;64.76;101247.63;5103479;28;19917;-55
2023/05/05 00:41:09;;;;;;;;;;;;;;;22.28;68.16;101250.44;5101953;28;19939;-50
2023/05/05 00:43:35;;;;;;;;;;;;;;;22.30;69.73;101242.81;5086623;28;19912;-50
2023/05/05 00:46:08;;;;;;;;;;;;;;;22.88;68.82;101242.78;5082296;28;19916;-51
2023/05/05 00:48:34;;;;;;;;;;;;;;;22.75;70.46;101233.22;5085862;28;19921;-54
2023/05/05 00:50:59;;;;;;;;;;;;;;;23.22;69.21;101249.69;5101992;28;19947;-54
2023/05/05 00:53:25;;;;;;;;;;;;;;;22.92;71.75;101238.44;5103074;28;19920;-53
2023/05/05 00:55:51;;;;;;;;;;;;;;;22.87;72.98;101243.09;5086444;28;19920;-55
2023/05/05 00:58:16;;;;;;;;;;;;;;;23.03;73.12;101247.47;5105166;28;19917;-55
2023/05/05 01:00:42;;;;;;;;;;;;;;;23.00;73.47;101245.28;5107597;28;19999;-54
2023/05/05 01:03:08;;;;;;;;;;;;;;;23.11;73.32;101243.38;5091232;28;19921;-55
2023/05/05 01:05:50;;;;;;;;;;;;;;;22.86;76.35;101242.25;5090545;28;19916;-55
2023/05/05 01:08:28;;;;;;;;;;;;;;;23.02;75.96;101251.28;5106969;28;20007;-55
2023/05/05 01:11:00;;;;;;;;;;;;;;;23.05;76.75;101258.91;5091920;28;19916;-54
2023/05/05 01:13:41;;;;;;;;;;;;;;;23.08;77.37;101248.59;5087170;28;20363;-56
2023/05/05 01:16:16;;;;;;;;;;;;;;;23.01;78.93;101251.56;5103830;28;19920;-51
2023/05/05 01:18:57;;;;;;;;;;;;;;;23.26;77.63;101266.38;5089962;28;19965;-48
2023/05/05 01:21:26;;;;;;;;;;;;;;;23.28;78.46;101261.44;5089771;28;19960;-49
2023/05/05 01:23:52;;;;;;;;;;;;;;;22.97;80.06;101267.63;5110959;28;19942;-50
2023/05/05 01:26:17;;;;;;;;;;;;;;;22.89;82.59;101274.44;5107083;28;19929;-50
2023/05/05 01:28:49;;;;;;;;;;;;;;;23.09;82.19;101280.22;5108175;28;19924;-48
2023/05/05 01:31:34;;;;;;;;;;;;;;;23.23;81.21;101289.50;5106904;28;19917;-50
2023/05/05 01:34:02;;;;;;;;;;;;;;;29.87;51.86;101310.88;5090782;28;20053;-52
2023/05/05 01:36:35;;;;;;;;;;;;;;;30.62;48.28;101314.94;5089097;28;19927;-50
2023/05/05 01:39:01;;;;;;;;;;;;;;;32.25;46.75;101313.00;5108541;28;19924;-54
2023/05/05 01:41:32;;;;;;;;;;;;;;;32.51;45.63;101312.06;5110087;28;19928;-53
2023/05/05 01:44:00;;;;;;;;;;;;;;;31.60;46.26;101302.78;5110720;28;19920;-53
2023/05/05 01:46:25;;;;;;;;;;;;;;;32.25;45.27;101307.47;5091756;28;19939;-54
2023/05/05 01:48:52;;;;;;;;;;;;;;;28.53;51.23;101287.22;5110797;28;19916;-51
2023/05/05 01:51:20;;;;;;;;;;;;;;;28.88;52.97;101270.28;5090850;28;19916;-55
2023/05/05 01:53:46;;;;;;;;;;;;;;;26.68;59.51;101273.50;5121795;28;19920;-55
2023/05/05 01:56:14;;;;;;;;;;;;;;;27.24;58.65;101271.09;5119277;28;19920;-54
2023/05/05 01:58:41;;;;;;;;;;;;;;;27.38;58.37;101278.56;5123890;28;19920;-55
2023/05/05 02:01:07;;;;;;;;;;;;;;;27.98;57.12;101274.25;5123725;28;19923;-51
2023/05/05 02:03:35;;;;;;;;;;;;;;;28.00;56.74;101283.81;5120298;28;19920;-50
2023/05/05 02:06:01;;;;;;;;;;;;;;;28.26;55.95;101290.81;5123957;28;19984;-53
2023/05/05 02:08:28;;;;;;;;;;;;;;;27.97;56.63;101289.94;5123472;28;19923;-52
2023/05/05 02:10:54;;;;;;;;;;;;;;;28.58;55.02;101283.53;5123797;28;19916;-50
2023/05/05 02:13:20;;;;;;;;;;;;;;;28.09;55.70;101291.38;5121642;28;19931;-53
2023/05/05 02:15:46;;;;;;;;;;;;;;;28.69;54.67;101286.88;5120584;28;19924;-50
2023/05/05 02:18:12;;;;;;;;;;;;;;;29.09;53.02;101283.56;5120634;28;19924;-53
2023/05/05 02:20:39;;;;;;;;;;;;;;;29.42;52.62;101269.59;5116734;28;19916;-54
2023/05/05 02:23:06;;;;;;;;;;;;;;;28.71;53.34;101279.97;5120906;28;19946;-53
2023/05/05 02:25:44;;;;;;;;;;;;;;;29.43;52.22;101282.22;5123760;28;19975;-52
2023/05/05 02:28:14;;;;;;;;;;;;;;;29.25;52.17;101289.53;5115828;28;20002;-52
2023/05/05 02:30:40;;;;;;;;;;;;;;;29.74;51.79;101281.44;5123776;28;19979;-56
2023/05/05 02:33:07;;;;;;;;;;;;;;;29.31;52.15;101285.53;5118609;28;19916;-51
2023/05/05 02:35:35;;;;;;;;;;;;;;;29.66;51.21;101284.97;5119258;28;20379;-54
2023/05/05 02:38:04;;;;;;;;;;;;;;;29.95;50.78;101286.41;5115309;28;19920;-50
2023/05/05 02:40:36;;;;;;;;;;;;;;;29.99;50.46;101298.44;5118264;28;19916;-52
2023/05/05 02:43:05;;;;;;;;;;;;;;;29.82;50.94;101282.63;5120276;28;19923;-51
2023/05/05 02:45:31;;;;;;;;;;;;;;;29.84;50.25;101288.63;5121066;28;19955;-51
2023/05/05 02:47:56;;;;;;;;;;;;;;;29.09;51.76;101289.88;5125711;28;19923;-52
2023/05/05 02:50:22;;;;;;;;;;;;;;;30.03;50.58;101299.47;5117732;28;19980;-52
2023/05/05 02:52:59;;;;;;;;;;;;;;;29.59;50.64;101296.44;5124232;28;19927;-51
2023/05/05 02:55:32;;;;;;;;;;;;;;;29.25;51.79;101297.78;5117763;28;19977;-51
2023/05/05 02:58:03;;;;;;;;;;;;;;;29.56;51.30;101297.88;5119345;28;19916;-53
2023/05/05 03:00:37;;;;;;;;;;;;;;;29.31;51.96;101291.84;5123744;28;19922;-52
2023/05/05 03:03:16;;;;;;;;;;;;;;;29.39;51.69;101297.72;5116948;28;19970;-54
2023/05/05 03:06:03;;;;;;;;;;;;;;;29.30;52.28;101300.41;5118098;28;19916;-55
2023/05/05 03:08:32;;;;;;;;;;;;;;;28.50;53.39;101317.28;5145653;27;19927;-53
2023/05/05 03:11:01;;;;;;;;;;;;;;;28.48;53.89;101306.56;5115974;28;19930;-54
2023/05/05 03:13:27;;;;;;;;;;;;;;;28.60;53.41;101303.31;5120472;28;19908;-52
2023/05/05 03:15:53;;;;;;;;;;;;;;;28.88;52.68;101311.56;5119588;28;19935;-50
2023/05/05 03:18:23;;;;;;;;;;;;;;;28.62;52.93;101303.84;5114978;28;19924;-51
2023/05/05 03:20:55;;;;;;;;;;;;;;;28.14;53.60;101314.09;5103783;28;19916;-53
2023/05/05 03:23:21;;;;;;;;;;;;;;;28.48;53.24;101315.66;5117901;28;19947;-50
2023/05/05 03:25:51;;;;;;;;;;;;;;;28.21;52.97;101305.44;5098538;28;19916;-54
2023/05/05 03:28:28;;;;;;;;;;;;;;;27.98;54.09;101304.50;5115139;28;19943;-54
2023/05/05 03:30:57;;;;;;;;;;;;;;;28.63;52.61;101291.72;5119631;28;19916;-52
2023/05/05 03:33:22;;;;;;;;;;;;;;;28.86;51.87;101308.31;5119845;28;19942;-50
2023/05/05 03:35:49;;;;;;;;;;;;;;;27.55;54.18;101314.56;5123645;28;19987;-51
2023/05/05 03:38:16;;;;;;;;;;;;;;;28.15;53.41;101315.75;5122100;28;19916;-49
2023/05/05 03:40:43;;;;;;;;;;;;;;;27.56;53.82;101313.44;5109270;28;20346;-49
2023/05/05 03:43:11;;;;;;;;;;;;;;;27.11;55.25;101319.31;5120385;28;19915;-49
2023/05/05 03:45:36;;;;;;;;;;;;;;;26.71;55.82;101324.22;5119645;28;19922;-50
2023/05/05 03:48:03;;;;;;;;;;;;;;;26.95;55.50;101321.44;5116433;28;19916;-52
2023/05/05 03:50:29;;;;;;;;;;;;;;;26.96;55.85;101319.53;5118687;28;19978;-54
2023/05/05 03:52:55;;;;;;;;;;;;;;;27.25;55.09;101324.88;5119453;28;19931;-51
2023/05/05 03:55:20;;;;;;;;;;;;;;;27.54;54.73;101325.84;5121157;28;19923;-49
2023/05/05 03:57:46;;;;;;;;;;;;;;;26.71;56.24;101333.25;5124139;28;19944;-53
2023/05/05 04:00:11;;;;;;;;;;;;;;;27.01;55.22;101339.50;5117482;28;19927;-50
2023/05/05 04:02:40;;;;;;;;;;;;;;;28.04;53.30;101339.84;5120668;28;19995;-50
2023/05/05 04:05:07;;;;;;;;;;;;;;;27.54;54.01;101343.13;5120913;28;19927;-50
2023/05/05 04:07:32;;;;;;;;;;;;;;;26.12;58.34;101347.03;5118662;28;19937;-49
2023/05/05 04:09:58;;;;;;;;;;;;;;;26.38;57.67;101356.94;5122828;28;19922;-51
2023/05/05 04:12:23;;;;;;;;;;;;;;;26.60;57.38;101354.50;5123164;28;19987;-51
2023/05/05 04:14:49;;;;;;;;;;;;;;;27.08;56.52;101365.75;5119154;28;19946;-52
2023/05/05 04:17:15;;;;;;;;;;;;;;;26.60;56.59;101365.47;5117440;28;19931;-47
2023/05/05 04:19:41;;;;;;;;;;;;;;;27.33;55.90;101359.91;5119906;28;19922;-49
2023/05/05 04:22:07;;;;;;;;;;;;;;;27.51;54.83;101368.47;5117743;28;19916;-49
2023/05/05 04:24:32;;;;;;;;;;;;;;;27.50;54.60;101361.31;5120611;28;19958;-51
2023/05/05 04:26:58;;;;;;;;;;;;;;;27.11;55.74;101370.66;5117676;28;19937;-50
2023/05/05 04:29:23;;;;;;;;;;;;;;;27.32;55.08;101368.41;5120361;28;19919;-52
2023/05/05 04:31:49;;;;;;;;;;;;;;;26.73;56.19;101369.41;5122793;28;19931;-51
2023/05/05 04:34:15;;;;;;;;;;;;;;;26.84;55.77;101363.84;5124100;28;19931;-50
2023/05/05 04:36:41;;;;;;;;;;;;;;;27.19;55.51;101369.97;5122519;28;19920;-54
2023/05/05 04:39:07;;;;;;;;;;;;;;;27.23;55.27;101368.28;5121379;28;19976;-54
2023/05/05 04:41:33;;;;;;;;;;;;;;;27.17;55.35;101369.44;5117427;28;19916;-52
2023/05/05 04:43:58;;;;;;;;;;;;;;;27.26;55.31;101375.94;5121997;28;19923;-53
2023/05/05 04:46:25;;;;;;;;;;;;;;;26.86;55.84;101365.19;5122219;28;19996;-52
2023/05/05 04:48:50;;;;;;;;;;;;;;;27.00;55.27;101373.53;5116924;28;19962;-55
2023/05/05 04:51:16;;;;;;;;;;;;;;;26.70;56.16;101380.97;5121601;28;19937;-53
2023/05/05 04:53:42;;;;;;;;;;;;;;;26.62;56.47;101379.69;5121600;28;19942;-55
2023/05/05 04:56:07;;;;;;;;;;;;;;;26.73;56.27;101383.13;5122375;28;19926;-53
2023/05/05 04:58:33;;;;;;;;;;;;;;;26.26;57.09;101392.97;5121598;28;19927;-52
2023/05/05 05:00:58;;;;;;;;;;;;;;;26.09;58.74;101396.94;5121071;28;19916;-52
2023/05/05 05:03:24;;;;;;;;;;;;;;;26.80;57.00;101390.22;5120912;28;19959;-51
2023/05/05 05:05:50;;;;;;;;;;;;;;;26.61;56.54;101393.72;5115647;28;19979;-51
2023/05/05 05:08:16;;;;;;;;;;;;;;;27.24;55.76;101393.81;5113138;28;20390;-56
2023/05/05 05:10:42;;;;;;;;;;;;;;;27.52;54.84;101403.06;5114413;28;19931;-52
2023/05/05 05:13:08;;;;;;;;;;;;;;;26.81;56.46;101397.34;5122175;28;19916;-51
2023/05/05 05:15:36;;;;;;;;;;;;;;;26.73;56.76;101394.09;5111733;28;19923;-55
2023/05/05 05:18:02;;;;;;;;;;;;;;;27.44;55.76;101393.50;5113689;28;19923;-53
2023/05/05 05:20:28;;;;;;;;;;;;;;;27.44;55.37;101398.19;5120265;28;19912;-53
2023/05/05 05:22:54;;;;;;;;;;;;;;;27.49;55.29;101396.19;5117496;28;19916;-53
2023/05/05 05:25:20;;;;;;;;;;;;;;;26.59;57.17;101390.44;5113189;28;19969;-53
2023/05/05 05:27:47;;;;;;;;;;;;;;;25.53;60.00;101395.44;5112893;28;19927;-54
2023/05/05 05:30:13;;;;;;;;;;;;;;;26.03;59.97;101398.06;5115383;28;19916;-52
2023/05/05 05:32:39;;;;;;;;;;;;;;;25.96;60.59;101395.69;5115506;28;19908;-49
2023/05/05 05:35:04;;;;;;;;;;;;;;;26.57;59.33;101400.91;5122458;28;19915;-48
2023/05/05 05:37:32;;;;;;;;;;;;;;;26.20;59.69;101401.25;5115748;28;19931;-53
2023/05/05 05:39:58;;;;;;;;;;;;;;;26.99;58.64;101402.09;5117700;28;19916;-50
2023/05/05 05:42:25;;;;;;;;;;;;;;;26.39;59.59;101397.78;5117708;28;19916;-49
2023/05/05 05:44:51;;;;;;;;;;;;;;;25.89;61.58;101401.47;5115356;28;19951;-49
2023/05/05 05:47:17;;;;;;;;;;;;;;;26.77;60.28;101405.34;5115027;28;19916;-50
2023/05/05 05:49:43;;;;;;;;;;;;;;;26.80;59.26;101409.44;5116436;28;19916;-53
2023/05/05 05:52:09;;;;;;;;;;;;;;;26.99;59.04;101407.59;5114572;28;19952;-50
2023/05/05 05:54:35;;;;;;;;;;;;;;;27.08;58.72;101413.22;5089349;28;19916;-54
2023/05/05 05:57:03;;;;;;;;;;;;;;;27.37;58.62;101408.72;5087742;28;19927;-52
2023/05/05 05:59:29;;;;;;;;;;;;;;;28.00;57.19;101420.44;5091475;28;19938;-52
2023/05/05 06:01:55;;;;;;;;;;;;;;;28.26;56.24;101429.13;5104742;28;19922;-52
2023/05/05 06:04:21;;;;;;;;;;;;;;;27.69;57.56;101426.44;5086227;28;19924;-54
2023/05/05 06:06:47;;;;;;;;;;;;;;;27.13;58.62;101431.56;5087500;28;19925;-54
2023/05/05 06:09:13;;;;;;;;;;;;;;;26.97;59.57;101428.97;5089067;28;19931;-55
2023/05/05 06:11:39;;;;;;;;;;;;;;;26.95;60.02;101431.22;5085019;28;19921;-54
2023/05/05 06:14:04;;;;;;;;;;;;;;;27.23;59.87;101425.13;5088842;28;19946;-54
2023/05/05 06:16:30;;;;;;;;;;;;;;;26.90;59.96;101434.03;5085536;28;19925;-55
2023/05/05 06:18:59;;;;;;;;;;;;;;;27.24;60.20;101419.34;5088167;28;19916;-56
2023/05/05 06:21:24;;;;;;;;;;;;;;;28.27;56.84;101435.41;5091659;28;19922;-58
2023/05/05 06:23:50;;;;;;;;;;;;;;;27.99;57.95;101433.34;5089150;28;19979;-53
2023/05/05 06:26:16;;;;;;;;;;;;;;;28.46;57.09;101447.16;5088656;28;19916;-51
2023/05/05 06:28:41;;;;;;;;;;;;;;;29.20;55.74;101452.94;5108721;28;19975;-50
2023/05/05 06:31:07;;;;;;;;;;;;;;;29.30;55.07;101455.47;5102637;28;19916;-52
2023/05/05 06:33:32;;;;;;;;;;;;;;;28.08;57.72;101443.69;5102174;28;19916;-54
2023/05/05 06:35:58;;;;;;;;;;;;;;;28.69;56.49;101452.81;5107950;28;19920;-52
2023/05/05 06:38:23;;;;;;;;;;;;;;;27.93;57.75;101448.31;5105420;28;19976;-55
2023/05/05 06:40:49;;;;;;;;;;;;;;;28.52;57.16;101449.81;5105501;28;19924;-54
2023/05/05 06:43:14;;;;;;;;;;;;;;;27.98;57.63;101450.97;5106582;28;19920;-55
2023/05/05 06:45:45;;;;;;;;;;;;;;;28.47;56.90;101450.72;5104813;28;19920;-54
2023/05/05 06:48:11;;;;;;;;;;;;;;;28.65;56.31;101453.72;5104718;28;19916;-56
2023/05/05 06:50:36;;;;;;;;;;;;;;;28.51;57.33;101470.19;5104793;28;19924;-52
2023/05/05 06:53:02;;;;;;;;;;;;;;;28.06;57.99;101465.97;5104550;28;19924;-57
2023/05/05 06:55:28;;;;;;;;;;;;;;;27.55;59.92;101468.38;5103575;28;19932;-55
2023/05/05 06:57:53;;;;;;;;;;;;;;;27.96;58.65;101471.63;5102367;28;19916;-57
2023/05/05 07:00:19;;;;;;;;;;;;;;;27.26;60.13;101469.28;5104372;28;19987;-55
2023/05/05 07:02:46;;;;;;;;;;;;;;;27.69;59.74;101462.16;5105450;28;19916;-56
2023/05/05 07:05:11;;;;;;;;;;;;;;;28.09;57.81;101468.13;5091119;28;19920;-55
2023/05/05 07:07:37;;;;;;;;;;;;;;;28.73;56.19;101467.59;5109780;28;19924;-55
2023/05/05 07:10:03;;;;;;;;;;;;;;;28.75;56.17;101468.09;5107079;28;19954;-52
2023/05/05 07:12:30;;;;;;;;;;;;;;;28.57;56.21;101466.22;5107259;28;19931;-51
2023/05/05 07:14:56;;;;;;;;;;;;;;;29.24;54.48;101467.69;5105367;28;19955;-55
2023/05/05 07:17:21;;;;;;;;;;;;;;;28.98;54.30;101475.69;5106434;28;19924;-56
2023/05/05 07:19:47;;;;;;;;;;;;;;;29.76;52.92;101477.63;5106570;28;19951;-56
2023/05/05 07:22:13;;;;;;;;;;;;;;;28.61;53.94;101489.28;5107116;28;19943;-56
2023/05/05 07:24:38;;;;;;;;;;;;;;;29.48;52.56;101491.47;5106425;28;19916;-56
2023/05/05 07:27:05;;;;;;;;;;;;;;;28.72;54.36;101487.97;5106727;28;19934;-52
2023/05/05 07:29:30;;;;;;;;;;;;;;;29.17;53.87;101489.34;5105517;28;19951;-56
2023/05/05 07:31:56;;;;;;;;;;;;;;;29.22;53.22;101491.97;5108059;28;19916;-54
2023/05/05 07:34:21;;;;;;;;;;;;;;;28.82;53.04;101495.25;5107620;28;19920;-58
2023/05/05 07:36:46;;;;;;;;;;;;;;;28.94;53.48;101494.75;5101422;28;19939;-53
2023/05/05 07:39:14;;;;;;;;;;;;;;;28.24;54.29;101493.75;5103986;28;19928;-57
2023/05/05 07:41:40;;;;;;;;;;;;;;;29.02;53.16;101485.75;5103565;28;19919;-54
2023/05/05 07:44:06;;;;;;;;;;;;;;;29.02;52.55;101485.75;5102350;28;19976;-51
2023/05/05 07:46:31;;;;;;;;;;;;;;;29.50;51.83;101489.22;5104756;28;19916;-54
2023/05/05 07:48:57;;;;;;;;;;;;;;;29.94;50.80;101488.78;5103207;28;19916;-51
2023/05/05 07:51:22;;;;;;;;;;;;;;;29.69;50.46;101491.00;5104710;28;19927;-53
2023/05/05 07:53:48;;;;;;;;;;;;;;;30.53;48.76;101483.19;5121488;28;19920;-53
2023/05/05 07:56:13;;;;;;;;;;;;;;;29.26;50.91;101487.47;5116080;28;19944;-53
2023/05/05 07:58:38;;;;;;;;;;;;;;;30.31;49.83;101478.53;5117591;28;19939;-52
2023/05/05 08:01:05;;;;;;;;;;;;;;;31.27;48.01;101483.69;5117349;28;19994;-53
2023/05/05 08:03:31;;;;;;;;;;;;;;;30.55;48.47;101482.91;5117388;28;19938;-51
2023/05/05 08:06:04;;;;;;;;;;;;;;;31.16;47.40;101487.88;5119293;28;19955;-54
2023/05/05 08:08:29;;;;;;;;;;;;;;;30.95;47.65;101480.19;5114830;28;20022;-56
2023/05/05 08:10:55;;;;;;;;;;;;;;;30.58;48.58;101483.09;5120709;28;19920;-56
2023/05/05 08:13:20;;;;;;;;;;;;;;;31.25;47.67;101493.44;5123952;28;19924;-57
2023/05/05 08:15:46;;;;;;;;;;;;;;;30.81;47.85;101493.25;5119136;28;19920;-57
2023/05/05 08:18:11;;;;;;;;;;;;;;;31.63;46.47;101492.03;5120313;28;19915;-57
2023/05/05 08:20:37;;;;;;;;;;;;;;;31.39;46.49;101493.31;5121148;28;19923;-55
2023/05/05 08:23:02;;;;;;;;;;;;;;;30.80;47.45;101489.72;5123048;28;19923;-54
2023/05/05 08:25:28;;;;;;;;;;;;;;;31.03;47.07;101492.38;5114724;28;20002;-58
2023/05/05 08:27:54;;;;;;;;;;;;;;;31.51;46.49;101499.00;5114423;28;19916;-55
2023/05/05 08:30:20;;;;;;;;;;;;;;;31.29;46.27;101498.00;5114156;28;19931;-56
2023/05/05 08:32:45;;;;;;;;;;;;;;;31.89;45.79;101498.41;5114222;28;19916;-58
2023/05/05 08:35:11;;;;;;;;;;;;;;;32.25;44.73;101495.59;5114228;28;19966;-54
2023/05/05 08:37:36;;;;;;;;;;;;;;;32.12;43.63;101501.00;5117967;28;19927;-57
2023/05/05 08:40:04;;;;;;;;;;;;;;;31.72;44.57;101503.91;5116529;28;19923;-54
2023/05/05 08:42:30;;;;;;;;;;;;;;;31.65;44.49;101506.34;5114307;28;19942;-56
2023/05/05 08:44:55;;;;;;;;;;;;;;;31.20;45.25;101508.22;5114019;28;19924;-54
2023/05/05 08:47:20;;;;;;;;;;;;;;;30.97;46.42;101505.53;5115554;28;19920;-57
2023/05/05 08:49:46;;;;;;;;;;;;;;;32.10;45.47;101511.59;5114244;28;19988;-55
2023/05/05 08:52:13;;;;;;;;;;;;;;;32.73;45.08;101522.19;5111585;28;19920;-53
2023/05/05 08:54:40;;;;;;;;;;;;;;;32.89;45.29;101521.69;5100770;28;19916;-56
2023/05/05 08:57:08;;;;;;;;;;;;;;;33.36;43.42;101515.25;5107043;28;19926;-53
2023/05/05 08:59:34;;;;;;;;;;;;;;;33.09;43.76;101520.09;5108292;28;19917;-53
2023/05/05 09:02:00;;;;;;;;;;;;;;;34.40;42.77;101511.97;5110081;28;19927;-55
2023/05/05 09:04:26;;;;;;;;;;;;;;;33.29;43.63;101517.72;5108456;28;19920;-54
2023/05/05 09:06:52;;;;;;;;;;;;;;;33.31;42.47;101516.25;5101291;28;19917;-56
2023/05/05 09:09:18;;;;;;;;;;;;;;;33.09;43.01;101519.31;5110775;28;19983;-54
2023/05/05 09:11:43;;;;;;;;;;;;;;;32.05;44.13;101511.72;5101466;28;19920;-55
2023/05/05 09:14:09;;;;;;;;;;;;;;;32.50;43.83;101509.72;5107409;28;19930;-57
2023/05/05 09:16:35;;;;;;;;;;;;;;;32.05;44.27;101508.97;5102827;28;19955;-56
2023/05/05 09:19:01;;;;;;;;;;;;;;;33.07;43.18;101505.78;5103928;28;19916;-55
2023/05/05 09:21:28;;;;;;;;;;;;;;;31.61;44.75;101501.47;5110757;28;19916;-56
2023/05/05 09:24:02;;;;;;;;;;;;;;;32.37;44.04;101512.38;5111902;28;19923;-56
2023/05/05 09:26:29;;;;;;;;;;;;;;;34.01;42.34;101517.72;5104396;28;19916;-54
2023/05/05 09:28:55;;;;;;;;;;;;;;;32.94;43.43;101517.91;5114407;28;19912;-56
2023/05/05 09:31:20;;;;;;;;;;;;;;;31.99;44.56;101513.03;5109024;28;21037;-53
2023/05/05 09:33:45;;;;;;;;;;;;;;;32.26;44.32;101513.81;5115335;28;19938;-56
2023/05/05 09:36:11;;;;;;;;;;;;;;;31.53;45.21;101518.84;5108306;28;19993;-52
2023/05/05 09:38:36;;;;;;;;;;;;;;;32.27;44.90;101516.28;5101603;28;19916;-53
2023/05/05 09:41:01;;;;;;;;;;;;;;;33.49;43.26;101531.97;5103890;28;19916;-53
2023/05/05 09:43:27;;;;;;;;;;;;;;;33.52;42.94;101526.59;5086476;28;19916;-53
2023/05/05 09:46:04;;;;;;;;;;;;;;;33.22;42.96;101529.34;5109058;28;19927;-57
2023/05/05 09:48:30;;;;;;;;;;;;;;;32.90;43.52;101528.84;5099416;28;19917;-55
2023/05/05 09:50:56;;;;;;;;;;;;;;;32.64;43.96;101523.34;5096489;28;19981;-57
2023/05/05 09:53:22;;;;;;;;;;;;;;;32.00;45.24;101521.03;5102854;28;19928;-55
2023/05/05 09:55:57;;;;;;;;;;;;;;;32.74;43.84;101517.47;5105917;28;19994;-57
2023/05/05 09:58:26;;;;;;;;;;;;;;;32.18;44.15;101509.94;5105771;28;19924;-55
2023/05/05 10:00:53;;;;;;;;;;;;;;;32.22;45.77;101505.38;5103857;28;19979;-54
2023/05/05 10:03:18;;;;;;;;;;;;;;;31.63;48.70;101505.88;5104340;28;19972;-53
2023/05/05 10:05:49;;;;;;;;;;;;;;;32.17;48.81;101511.88;5106091;28;19987;-53
2023/05/05 10:08:15;;;;;;;;;;;;;;;31.39;49.18;101507.94;5085154;28;19920;-55
2023/05/05 10:10:50;;;;;;;;;;;;;;;30.71;51.13;101503.47;5105139;28;19920;-55
2023/05/05 10:13:17;;;;;;;;;;;;;;;30.70;51.75;101493.56;5101701;28;19927;-57
2023/05/05 10:15:44;;;;;;;;;;;;;;;31.38;53.69;101489.72;5104432;28;19916;-56
2023/05/05 10:18:10;;;;;;;;;;;;;;;31.17;54.13;101497.78;5108606;28;20232;-57
2023/05/05 10:20:36;;;;;;;;;;;;;;;30.93;55.05;101499.00;5098825;28;19926;-55
2023/05/05 10:23:05;;;;;;;;;;;;;;;30.07;58.71;101498.16;5097840;28;19968;-56
2023/05/05 10:25:34;;;;;;;;;;;;;;;30.29;58.71;101486.31;5103670;28;19942;-58
2023/05/05 10:28:00;;;;;;;;;;;;;;;31.17;59.46;101483.97;5109764;28;19951;-54
2023/05/05 10:30:28;;;;;;;;;;;;;;;31.66;60.15;101483.09;5103634;28;19927;-53
2023/05/05 10:32:57;;;;;;;;;;;;;;;32.07;59.03;101481.81;5106726;28;19917;-53
2023/05/05 10:35:23;;;;;;;;;;;;;;;31.82;57.65;101478.72;5105151;28;19975;-55
2023/05/05 10:37:49;;;;;;;;;;;;;;;32.24;56.63;101480.13;5107943;28;19920;-53
2023/05/05 10:40:15;;;;;;;;;;;;;;;33.21;55.15;101500.00;5105685;28;19920;-56
2023/05/05 10:42:41;;;;;;;;;;;;;;;31.80;57.30;101500.34;5103524;28;19927;-53
2023/05/05 10:45:06;;;;;;;;;;;;;;;31.61;56.50;101501.47;5105228;28;19987;-58
2023/05/05 10:47:32;;;;;;;;;;;;;;;30.70;58.23;101506.53;5105192;28;19916;-53
2023/05/05 10:50:15;;;;;;;;;;;;;;;29.48;62.43;101525.34;5107120;28;19924;-56
2023/05/05 10:52:44;;;;;;;;;;;;;;;27.78;62.29;101534.53;5112872;28;19919;-55
2023/05/05 10:55:16;;;;;;;;;;;;;;;25.90;76.34;101536.53;5122069;28;19958;-56
2023/05/05 10:57:42;;;;;;;;;;;;;;;26.80;75.81;101544.66;5119544;28;20352;-53
2023/05/05 11:00:08;;;;;;;;;;;;;;;25.35;100.00;101567.41;5115001;28;19924;-54
2023/05/05 11:02:34;;;;;;;;;;;;;;;25.94;100.00;101551.28;5120198;28;19916;-54
2023/05/05 11:05:08;;;;;;;;;;;;;;;26.36;100.00;101583.97;5120006;28;19991;-55
2023/05/05 11:07:34;;;;;;;;;;;;;;;25.34;100.00;101607.66;5120801;28;19966;-57
2023/05/05 11:10:03;;;;;;;;;;;;;;;29.40;100.00;101640.94;5119203;28;19920;-58
2023/05/05 11:12:29;;;;;;;;;;;;;;;31.15;100.00;101721.03;5117510;28;19915;-61
2023/05/05 11:15:13;;;;;;;;;;;;;;;27.61;100.00;101694.38;5116798;28;19923;-62
2023/05/05 11:17:45;;;;;;;;;;;;;;;28.16;100.00;101607.97;5118481;28;19959;-61
2023/05/05 11:20:11;;;;;;;;;;;;;;;27.89;100.00;101587.44;5119929;28;19922;-61
2023/05/05 11:22:55;;;;;;;;;;;;;;;28.19;99.34;101575.22;5121159;28;19916;-60
2023/05/05 11:25:43;;;;;;;;;;;;;;;28.28;96.23;101575.38;5120324;28;19915;-57
2023/05/05 11:28:17;;;;;;;;;;;;;;;27.68;100.00;101570.38;5107188;28;19923;-59
2023/05/05 11:30:54;;;;;;;;;;;;;;;28.57;90.31;101565.28;5115765;28;19916;-54
2023/05/05 11:33:23;;;;;;;;;;;;;;;27.34;99.05;101563.91;5122225;28;19924;-56
2023/05/05 11:35:55;;;;;;;;;;;;;;;27.95;96.47;101555.22;5118525;28;19915;-57
2023/05/05 11:38:36;;;;;;;;;;;;;;;27.85;95.43;101553.41;5117256;28;19920;-58
2023/05/05 11:41:20;;;;;;;;;;;;;;;26.74;99.28;101546.63;5116095;28;19916;-58
2023/05/05 11:43:45;;;;;;;;;;;;;;;26.76;100.00;101538.13;5121416;28;19938;-56
2023/05/05 11:46:14;;;;;;;;;;;;;;;27.10;100.00;101541.94;5116954;28;19975;-55
2023/05/05 11:48:57;;;;;;;;;;;;;;;26.94;100.00;101530.31;5117353;28;19935;-59
2023/05/05 11:51:23;;;;;;;;;;;;;;;26.89;100.00;101532.00;5112884;28;19927;-58
2023/05/05 11:53:48;;;;;;;;;;;;;;;26.97;100.00;101540.69;5102498;28;20373;-59
2023/05/05 11:56:17;;;;;;;;;;;;;;;26.97;100.00;101538.75;5103790;28;19921;-58
2023/05/05 11:58:46;;;;;;;;;;;;;;;26.93;100.00;101532.22;5098048;28;20490;-60
2023/05/05 12:01:12;;;;;;;;;;;;;;;26.22;100.00;101539.94;5102594;28;20015;-55
2023/05/05 12:03:37;;;;;;;;;;;;;;;25.59;100.00;101534.75;5105718;28;19916;-57
2023/05/05 12:06:04;;;;;;;;;;;;;;;26.03;100.00;101538.66;5103437;28;19916;-54
2023/05/05 12:08:39;;;;;;;;;;;;;;;25.54;100.00;101537.53;5103360;28;19916;-56
2023/05/05 12:11:06;;;;;;;;;;;;;;;25.83;100.00;101545.06;5102170;28;19932;-57
2023/05/05 12:13:31;;;;;;;;;;;;;;;26.97;100.00;101536.00;5101413;28;19952;-52
2023/05/05 12:16:18;;;;;;;;;;;;;;;26.89;100.00;101536.66;5086281;28;19947;-56
2023/05/05 12:18:44;;;;;;;;;;;;;;;26.89;100.00;101531.16;5107888;28;19950;-54
2023/05/05 12:21:16;;;;;;;;;;;;;;;27.04;100.00;101536.50;5108412;28;19928;-55
2023/05/05 12:23:41;;;;;;;;;;;;;;;25.51;100.00;101540.84;5099559;28;19938;-55
2023/05/05 12:26:07;;;;;;;;;;;;;;;26.08;100.00;101539.72;5103192;28;19916;-59
2023/05/05 12:28:46;;;;;;;;;;;;;;;26.38;100.00;101538.72;5102383;28;19920;-55
2023/05/05 12:31:12;;;;;;;;;;;;;;;26.46;100.00;101532.59;5096765;28;19935;-57
2023/05/05 12:33:38;;;;;;;;;;;;;;;25.26;100.00;101541.69;5102332;28;19948;-58
2023/05/05 12:36:04;;;;;;;;;;;;;;;25.28;100.00;101539.53;5078307;28;19928;-56
2023/05/05 12:38:29;;;;;;;;;;;;;;;25.24;100.00;101538.41;5106826;28;19949;-55